createdAt,value
2019-03-13T00:00:32.234Z,28.75
2019-03-13T00:01:36.312Z,26.50
2019-03-13T00:02:46.451Z,28.12
2019-03-13T00:03:56.980Z,28.55
2019-03-13T00:05:07.052Z,26.50
2019-03-13T00:06:20.986Z,28.20
2019-03-13T00:07:28.311Z,26.75
2019-03-13T00:08:35.715Z,28.10
2019-03-13T00:09:44.260Z,27.67
2019-03-13T00:10:54.604Z,27.07
2019-03-13T00:13:09.186Z,25.57
2019-03-13T00:14:15.167Z,26.25
2019-03-13T00:15:20.526Z,27.67
2019-03-13T00:16:26.870Z,26.33
2019-03-13T00:17:41.991Z,26.77
2019-03-13T00:18:49.104Z,28.27
2019-03-13T00:20:00.520Z,27.20
2019-03-13T00:21:07.006Z,27.22
2019-03-13T00:22:17.176Z,26.55
2019-03-13T00:23:30.393Z,27.27
2019-03-13T00:24:35.626Z,26.02
2019-03-13T00:25:41.602Z,26.35
2019-03-13T00:26:50.198Z,27.30
2019-03-13T00:28:02.164Z,27.37
2019-03-13T00:29:17.657Z,27.52
2019-03-13T00:30:18.806Z,27.48
2019-03-13T00:31:24.822Z,27.30
2019-03-13T00:32:34.595Z,26.20
2019-03-13T00:33:40.674Z,26.17
2019-03-13T00:34:46.454Z,27.20
2019-03-13T00:35:55.139Z,27.50
2019-03-13T00:37:04.676Z,28.07
2019-03-13T00:38:33.851Z,26.07
2019-03-13T00:39:37.047Z,26.73
2019-03-13T00:40:42.991Z,28.57
2019-03-13T00:41:47.183Z,28.10
2019-03-13T00:42:54.454Z,27.80
2019-03-13T00:43:58.767Z,28.20
2019-03-13T00:45:03.126Z,27.70
2019-03-13T00:46:08.124Z,27.10
2019-03-13T00:47:12.420Z,26.45
2019-03-13T00:48:20.420Z,28.17
2019-03-13T00:50:38.374Z,27.25
2019-03-13T00:51:50.446Z,28.35
2019-03-13T00:53:00.183Z,28.32
2019-03-13T00:54:11.236Z,29.42
2019-03-13T00:55:15.676Z,27.82
2019-03-13T00:56:25.601Z,29.00
2019-03-13T00:57:34.330Z,27.70
2019-03-13T00:58:45.776Z,28.23
2019-03-13T00:59:53.183Z,28.98
2019-03-13T01:01:00.232Z,29.48
2019-03-13T01:02:11.141Z,27.65
2019-03-13T01:03:26.396Z,28.05
2019-03-13T01:04:32.217Z,28.07
2019-03-13T01:05:38.294Z,29.35
2019-03-13T01:06:44.462Z,29.60
2019-03-13T01:07:48.860Z,29.23
2019-03-13T01:08:54.208Z,30.32
2019-03-13T01:10:00.163Z,29.20
2019-03-13T01:11:06.276Z,30.15
2019-03-13T01:12:12.346Z,31.17
2019-03-13T01:13:21.261Z,30.62
2019-03-13T01:14:26.492Z,30.85
2019-03-13T01:15:37.977Z,31.95
2019-03-13T01:16:42.380Z,30.82
2019-03-13T01:17:46.876Z,31.85
2019-03-13T01:18:51.288Z,32.55
2019-03-13T01:19:55.688Z,31.87
2019-03-13T01:21:06.210Z,33.60
2019-03-13T01:22:12.014Z,32.25
2019-03-13T01:23:18.008Z,33.40
2019-03-13T01:24:22.262Z,32.58
2019-03-13T01:25:26.524Z,33.67
2019-03-13T01:26:37.503Z,34.10
2019-03-13T01:27:41.662Z,33.30
2019-03-13T01:28:49.835Z,33.95
2019-03-13T01:29:53.472Z,33.70
2019-03-13T01:31:19.307Z,34.50
2019-03-13T01:32:32.567Z,33.63
2019-03-13T01:33:36.893Z,34.95
2019-03-13T01:34:44.340Z,35.90
2019-03-13T01:35:51.379Z,34.08
2019-03-13T01:36:55.815Z,35.60
2019-03-13T01:38:02.858Z,35.05
2019-03-13T01:39:07.610Z,35.00
2019-03-13T01:40:12.616Z,34.63
2019-03-13T01:41:19.391Z,34.88
2019-03-13T01:42:23.911Z,36.45
2019-03-13T01:43:29.901Z,35.23
2019-03-13T01:44:35.981Z,35.28
2019-03-13T01:45:41.525Z,36.60
2019-03-13T01:46:47.257Z,35.95
2019-03-13T01:47:54.820Z,36.20
2019-03-13T01:49:00.462Z,37.65
2019-03-13T01:50:09.199Z,37.33
2019-03-13T01:51:17.385Z,37.93
2019-03-13T01:52:23.593Z,36.60
2019-03-13T01:53:31.425Z,35.95
2019-03-13T01:54:35.444Z,37.70
2019-03-13T01:55:41.458Z,38.02
2019-03-13T01:56:47.354Z,38.48
2019-03-13T01:57:53.187Z,38.45
2019-03-13T01:59:00.236Z,37.42
2019-03-13T02:00:14.125Z,39.15
2019-03-13T02:01:22.109Z,38.20
2019-03-13T02:02:30.891Z,37.23
2019-03-13T02:03:36.316Z,38.30
2019-03-13T02:04:44.716Z,40.05
2019-03-13T02:05:49.477Z,37.93
2019-03-13T02:06:56.945Z,38.88
2019-03-13T02:08:01.426Z,37.90
2019-03-13T02:09:09.407Z,36.35
2019-03-13T02:10:13.979Z,38.10
2019-03-13T02:11:18.337Z,36.70
2019-03-13T02:12:24.320Z,37.95
2019-03-13T02:13:32.427Z,37.83
2019-03-13T02:14:39.382Z,38.88
2019-03-13T02:15:44.876Z,39.08
2019-03-13T02:16:50.478Z,39.30
2019-03-13T02:17:55.844Z,39.10
2019-03-13T02:19:04.276Z,40.45
2019-03-13T02:20:12.719Z,39.48
2019-03-13T02:21:17.074Z,38.80
2019-03-13T02:22:22.975Z,38.28
2019-03-13T02:23:33.897Z,38.25
2019-03-13T02:24:33.495Z,38.98
2019-03-13T02:25:38.916Z,39.55
2019-03-13T02:26:44.393Z,38.98
2019-03-13T02:27:50.351Z,38.65
2019-03-13T02:28:56.049Z,39.53
2019-03-13T02:30:00.835Z,37.63
2019-03-13T02:31:08.539Z,38.00
2019-03-13T02:32:14.402Z,37.63
2019-03-13T02:33:18.702Z,37.50
2019-03-13T02:34:23.112Z,37.98
2019-03-13T02:35:28.499Z,35.60
2019-03-13T02:36:38.555Z,38.80
2019-03-13T02:37:46.482Z,35.52
2019-03-13T02:39:00.023Z,38.78
2019-03-13T02:40:04.518Z,37.63
2019-03-13T02:41:14.097Z,37.48
2019-03-13T02:42:18.937Z,35.60
2019-03-13T02:43:23.414Z,34.88
2019-03-13T02:44:34.744Z,37.08
2019-03-13T02:45:43.623Z,37.15
2019-03-13T02:46:48.927Z,37.75
2019-03-13T02:47:57.388Z,37.98
2019-03-13T02:49:07.800Z,38.13
2019-03-13T02:50:19.088Z,35.25
2019-03-13T02:51:23.546Z,36.25
2019-03-13T02:52:31.259Z,36.88
2019-03-13T02:53:43.126Z,35.58
2019-03-13T02:54:48.779Z,33.02
2019-03-13T02:55:56.114Z,34.50
2019-03-13T02:57:02.131Z,35.90
2019-03-13T02:58:06.539Z,34.43
2019-03-13T02:59:23.379Z,35.58
2019-03-13T03:00:24.582Z,35.65
2019-03-13T03:01:30.475Z,34.53
2019-03-13T03:02:36.510Z,35.13
2019-03-13T03:03:45.792Z,34.65
2019-03-13T03:04:58.616Z,33.85
2019-03-13T03:06:07.016Z,34.98
2019-03-13T03:07:13.472Z,34.40
2019-03-13T03:08:23.669Z,35.73
2019-03-13T03:09:34.765Z,34.65
2019-03-13T03:10:38.717Z,34.43
2019-03-13T03:11:43.052Z,33.95
2019-03-13T03:12:48.674Z,33.58
2019-03-13T03:13:54.228Z,33.78
2019-03-13T03:15:07.524Z,33.48
2019-03-13T03:16:14.254Z,32.70
2019-03-13T03:17:21.010Z,32.03
2019-03-13T03:18:26.957Z,34.00
2019-03-13T03:19:32.722Z,32.83
2019-03-13T03:20:38.426Z,32.70
2019-03-13T03:21:42.693Z,32.40
2019-03-13T03:22:51.855Z,31.90
2019-03-13T03:23:56.155Z,32.28
2019-03-13T03:25:00.602Z,32.23
2019-03-13T03:26:09.280Z,32.58
2019-03-13T03:27:12.601Z,32.33
2019-03-13T03:28:18.522Z,33.38
2019-03-13T03:29:22.765Z,33.10
2019-03-13T03:30:28.332Z,32.05
2019-03-13T03:31:34.444Z,33.20
2019-03-13T03:32:38.661Z,33.05
2019-03-13T03:33:47.287Z,31.07
2019-03-13T03:35:00.996Z,31.42
2019-03-13T03:36:12.065Z,33.18
2019-03-13T03:37:13.639Z,32.33
2019-03-13T03:38:19.940Z,30.43
2019-03-13T03:39:30.101Z,30.32
2019-03-13T03:40:34.764Z,31.00
2019-03-13T03:41:41.736Z,30.60
2019-03-13T03:42:46.210Z,30.02
2019-03-13T03:43:55.472Z,30.30
2019-03-13T03:44:57.659Z,30.20
2019-03-13T03:46:04.321Z,31.65
2019-03-13T03:47:12.466Z,29.92
2019-03-13T03:48:18.192Z,30.95
2019-03-13T03:49:23.661Z,32.08
2019-03-13T03:50:28.087Z,31.55
2019-03-13T03:51:33.915Z,29.80
2019-03-13T03:52:41.228Z,29.77
2019-03-13T03:53:48.372Z,29.77
2019-03-13T03:54:56.642Z,29.18
2019-03-13T03:56:04.960Z,31.00
2019-03-13T03:57:09.230Z,30.75
2019-03-13T03:58:13.594Z,29.90
2019-03-13T03:59:23.336Z,28.57
2019-03-13T04:00:31.813Z,29.18
2019-03-13T04:01:38.915Z,29.25
2019-03-13T04:02:44.391Z,29.80
2019-03-13T04:03:50.170Z,27.95
2019-03-13T04:05:03.320Z,26.82
2019-03-13T04:06:07.678Z,28.23
2019-03-13T04:07:15.222Z,27.48
2019-03-13T04:08:19.449Z,29.72
2019-03-13T04:09:27.747Z,28.20
2019-03-13T04:10:36.320Z,26.30
2019-03-13T04:11:43.432Z,28.75
2019-03-13T04:12:49.371Z,27.87
2019-03-13T04:13:55.338Z,27.77
2019-03-13T04:15:01.394Z,28.32
2019-03-13T04:16:08.548Z,26.93
2019-03-13T04:17:14.243Z,26.65
2019-03-13T04:18:24.491Z,26.30
2019-03-13T04:19:44.279Z,25.23
2019-03-13T04:20:48.282Z,25.77
2019-03-13T04:21:52.250Z,24.98
2019-03-13T04:23:04.424Z,25.45
2019-03-13T04:24:04.070Z,25.72
2019-03-13T04:25:11.223Z,25.68
2019-03-13T04:26:22.868Z,25.92
2019-03-13T04:27:35.897Z,26.57
2019-03-13T04:28:43.202Z,24.80
2019-03-13T04:29:52.083Z,24.00
2019-03-13T04:30:59.294Z,25.37
2019-03-13T04:32:10.624Z,26.68
2019-03-13T04:33:28.220Z,24.63
2019-03-13T04:34:37.965Z,23.32
2019-03-13T04:35:46.724Z,18.82
2019-03-13T04:36:53.000Z,24.00
2019-03-13T04:37:59.835Z,23.67
2019-03-13T04:39:05.381Z,24.07
2019-03-13T04:40:11.626Z,22.58
2019-03-13T04:41:20.438Z,24.20
2019-03-13T04:42:26.720Z,25.95
2019-03-13T04:43:35.394Z,24.67
2019-03-13T04:44:44.447Z,23.22
2019-03-13T04:46:04.234Z,23.77
2019-03-13T04:47:05.156Z,23.62
2019-03-13T04:48:33.326Z,23.45
2019-03-13T04:49:28.848Z,23.70
2019-03-13T04:50:36.123Z,23.18
2019-03-13T04:51:43.294Z,23.32
2019-03-13T04:52:48.870Z,22.02
2019-03-13T04:53:55.670Z,22.52
2019-03-13T04:55:06.876Z,21.20
2019-03-13T04:56:05.871Z,23.00
2019-03-13T04:57:11.524Z,22.17
2019-03-13T04:58:15.770Z,22.90
2019-03-13T04:59:22.595Z,22.98
2019-03-13T05:00:30.003Z,21.97
2019-03-13T05:01:36.676Z,22.30
2019-03-13T05:02:44.786Z,21.90
2019-03-13T05:03:48.508Z,21.82
2019-03-13T05:04:53.852Z,21.93
2019-03-13T05:05:58.206Z,20.90
2019-03-13T05:07:04.127Z,21.20
2019-03-13T05:08:08.948Z,20.20
2019-03-13T05:09:17.009Z,20.65
2019-03-13T05:10:21.292Z,19.60
2019-03-13T05:11:27.372Z,20.02
2019-03-13T05:12:31.854Z,19.37
2019-03-13T05:13:37.269Z,19.50
2019-03-13T05:14:44.602Z,19.45
2019-03-13T05:15:50.528Z,20.12
2019-03-13T05:16:58.662Z,20.62
2019-03-13T05:18:05.431Z,20.52
2019-03-13T05:19:15.917Z,19.32
2019-03-13T05:20:23.821Z,19.10
2019-03-13T05:21:30.817Z,19.42
2019-03-13T05:22:38.160Z,19.30
2019-03-13T05:23:44.035Z,19.40
2019-03-13T05:24:49.909Z,18.35
2019-03-13T05:25:55.805Z,18.17
2019-03-13T05:27:01.973Z,18.55
2019-03-13T05:28:06.329Z,18.30
2019-03-13T05:29:16.520Z,19.17
2019-03-13T05:30:22.189Z,18.73
2019-03-13T05:31:31.070Z,18.77
2019-03-13T05:32:39.719Z,18.10
2019-03-13T05:33:46.912Z,18.67
2019-03-13T05:34:55.177Z,18.12
2019-03-13T05:36:01.159Z,19.35
2019-03-13T05:37:06.983Z,19.65
2019-03-13T05:38:11.374Z,18.82
2019-03-13T05:39:18.336Z,17.17
2019-03-13T05:40:26.150Z,18.77
2019-03-13T05:41:36.118Z,19.12
2019-03-13T05:42:42.093Z,17.82
2019-03-13T05:46:05.763Z,18.10
2019-03-13T05:46:24.575Z,17.67
2019-03-13T05:47:36.071Z,16.75
2019-03-13T05:48:41.855Z,17.50
2019-03-13T05:49:49.218Z,17.45
2019-03-13T05:50:53.573Z,17.57
2019-03-13T05:51:59.628Z,18.50
2019-03-13T05:53:07.293Z,19.10
2019-03-13T05:54:15.964Z,19.55
2019-03-13T05:55:20.300Z,17.87
2019-03-13T05:56:26.966Z,17.87
2019-03-13T05:57:33.645Z,17.02
2019-03-13T05:58:41.492Z,18.32
2019-03-13T05:59:48.406Z,17.87
2019-03-13T06:00:55.566Z,19.35
2019-03-13T06:02:02.273Z,17.77
2019-03-13T06:03:07.191Z,17.87
2019-03-13T06:04:14.685Z,18.27
2019-03-13T06:05:18.938Z,15.95
2019-03-13T06:06:23.239Z,18.57
2019-03-13T06:07:27.543Z,19.17
2019-03-13T06:08:50.054Z,18.32
2019-03-13T06:09:51.177Z,17.37
2019-03-13T06:10:57.081Z,18.30
2019-03-13T06:12:03.940Z,18.77
2019-03-13T06:13:24.683Z,17.77
2019-03-13T06:14:29.046Z,17.37
2019-03-13T06:15:35.815Z,18.00
2019-03-13T06:16:41.638Z,17.98
2019-03-13T06:17:48.662Z,18.27
2019-03-13T06:18:58.281Z,20.35
2019-03-13T06:20:10.781Z,17.87
2019-03-13T06:21:15.639Z,19.02
2019-03-13T06:22:22.822Z,18.20
2019-03-13T06:23:30.322Z,18.32
2019-03-13T06:24:38.998Z,16.10
2019-03-13T06:25:55.632Z,16.65
2019-03-13T06:27:05.477Z,16.97
2019-03-13T06:29:40.352Z,15.28
2019-03-13T06:30:47.187Z,16.67
2019-03-13T06:32:02.175Z,15.55
2019-03-13T06:33:10.582Z,17.92
2019-03-13T06:34:23.283Z,16.82
2019-03-13T06:35:27.747Z,13.62
2019-03-13T06:36:36.059Z,15.98
2019-03-13T06:37:40.513Z,15.40
2019-03-13T06:38:51.501Z,18.55
2019-03-13T06:40:05.053Z,16.52
2019-03-13T06:41:14.103Z,16.40
2019-03-13T06:42:21.421Z,16.37
2019-03-13T06:43:32.638Z,16.40
2019-03-13T06:44:36.891Z,16.15
2019-03-13T06:45:43.836Z,16.37
2019-03-13T06:46:55.995Z,16.25
2019-03-13T06:47:59.297Z,15.32
2019-03-13T06:49:07.477Z,16.80
2019-03-13T06:50:21.675Z,15.83
2019-03-13T06:51:27.113Z,15.08
2019-03-13T06:52:33.395Z,16.35
2019-03-13T06:53:40.322Z,16.35
2019-03-13T06:54:49.891Z,15.90
2019-03-13T06:55:56.456Z,15.28
2019-03-13T06:57:12.568Z,14.28
2019-03-13T06:58:19.211Z,14.63
2019-03-13T06:59:25.541Z,15.23
2019-03-13T07:00:49.390Z,15.20
2019-03-13T07:01:58.502Z,15.43
2019-03-13T07:03:09.854Z,14.87
2019-03-13T07:04:33.245Z,15.25
2019-03-13T07:05:51.200Z,15.32
2019-03-13T07:06:57.015Z,14.85
2019-03-13T07:08:11.793Z,14.75
2019-03-13T07:09:19.250Z,13.85
2019-03-13T07:10:27.676Z,14.10
2019-03-13T07:11:33.879Z,13.58
2019-03-13T07:12:50.000Z,13.60
2019-03-13T07:14:00.285Z,13.78
2019-03-13T07:15:15.305Z,14.50
2019-03-13T07:16:23.030Z,12.28
2019-03-13T07:17:31.387Z,14.87
2019-03-13T07:19:07.881Z,14.40
2019-03-13T07:19:54.779Z,13.93
2019-03-13T07:21:10.876Z,13.43
2019-03-13T07:22:30.363Z,14.03
2019-03-13T07:23:40.373Z,13.98
2019-03-13T07:24:48.379Z,12.88
2019-03-13T07:25:58.921Z,14.18
2019-03-13T07:27:07.636Z,12.73
2019-03-13T07:28:25.637Z,12.82
2019-03-13T07:29:46.155Z,13.83
2019-03-13T07:32:14.870Z,12.25
2019-03-13T07:33:37.990Z,13.03
2019-03-13T07:34:56.497Z,13.45
2019-03-13T07:36:24.937Z,12.65
2019-03-13T07:37:35.656Z,13.05
2019-03-13T07:38:50.513Z,13.38
2019-03-13T07:40:25.557Z,13.13
2019-03-13T07:41:14.137Z,13.38
2019-03-13T07:44:29.355Z,13.30
2019-03-13T07:45:39.620Z,12.40
2019-03-13T07:46:54.383Z,13.80
2019-03-13T07:48:09.904Z,13.55
2019-03-13T07:49:49.223Z,13.15
2019-03-13T07:51:14.267Z,12.58
2019-03-13T07:52:24.402Z,15.38
2019-03-13T07:53:34.646Z,13.90
2019-03-13T07:54:49.301Z,12.58
2019-03-13T07:56:12.164Z,12.45
2019-03-13T07:57:25.327Z,13.32
2019-03-13T07:58:49.265Z,12.93
2019-03-13T08:00:04.554Z,13.00
2019-03-13T08:01:19.656Z,13.08
2019-03-13T08:02:34.514Z,13.28
2019-03-13T08:03:43.314Z,14.83
2019-03-13T08:04:52.023Z,13.18
2019-03-13T08:06:14.731Z,12.93
2019-03-13T08:07:34.577Z,13.75
2019-03-13T08:08:52.855Z,12.47
2019-03-13T08:10:27.531Z,12.53
2019-03-13T08:13:31.787Z,12.47
2019-03-13T08:14:35.622Z,13.75
2019-03-13T08:15:55.945Z,13.65
2019-03-13T08:17:05.526Z,12.98
2019-03-13T08:18:23.557Z,13.00
2019-03-13T08:20:02.055Z,11.80
2019-03-13T08:21:36.501Z,12.40
2019-03-13T08:23:04.501Z,12.43
2019-03-13T08:24:16.095Z,12.50
2019-03-13T08:25:39.742Z,12.58
2019-03-13T08:27:05.204Z,12.25
2019-03-13T08:28:14.863Z,12.40
2019-03-13T08:29:22.270Z,12.43
2019-03-13T08:30:44.943Z,12.23
2019-03-13T08:32:08.329Z,11.93
2019-03-13T08:35:19.926Z,11.55
2019-03-13T08:36:12.617Z,12.98
2019-03-13T08:39:29.814Z,12.33
2019-03-13T08:40:40.158Z,12.13
2019-03-13T08:43:22.747Z,11.15
2019-03-13T08:44:49.071Z,12.35
2019-03-13T08:45:58.295Z,13.00
2019-03-13T08:47:22.595Z,11.68
2019-03-13T08:48:45.090Z,11.45
2019-03-13T08:49:59.044Z,13.08
2019-03-13T08:51:19.319Z,12.23
2019-03-13T08:52:29.082Z,13.30
2019-03-13T08:54:17.425Z,12.55
2019-03-13T08:55:21.377Z,12.47
2019-03-13T08:56:30.023Z,11.63
2019-03-13T08:57:43.202Z,14.83
2019-03-13T08:58:58.044Z,12.60
2019-03-13T09:00:05.238Z,12.88
2019-03-13T09:01:17.159Z,13.25
2019-03-13T09:02:42.104Z,13.05
2019-03-13T09:03:52.096Z,13.93
2019-03-13T09:05:08.479Z,13.98
2019-03-13T09:06:14.434Z,13.38
2019-03-13T09:07:23.095Z,13.45
2019-03-13T09:08:46.975Z,13.48
2019-03-13T09:09:52.933Z,12.90
2019-03-13T09:10:58.955Z,13.28
2019-03-13T09:12:04.813Z,13.30
2019-03-13T09:13:10.558Z,12.82
2019-03-13T09:14:31.731Z,13.40
2019-03-13T09:15:41.364Z,12.95
2019-03-13T09:16:53.329Z,13.13
2019-03-13T09:18:10.916Z,12.80
2019-03-13T09:19:28.457Z,12.90
2019-03-13T09:20:50.484Z,14.00
2019-03-13T09:22:02.325Z,12.30
2019-03-13T09:23:18.784Z,13.55
2019-03-13T09:24:28.979Z,13.30
2019-03-13T09:25:44.940Z,12.98
2019-03-13T09:26:53.857Z,12.98
2019-03-13T09:28:02.339Z,12.80
2019-03-13T09:29:49.586Z,12.30
2019-03-13T09:31:17.756Z,13.15
2019-03-13T09:32:55.033Z,11.80
2019-03-13T09:34:19.843Z,11.83
2019-03-13T09:35:34.178Z,10.43
2019-03-13T09:37:03.764Z,10.10
2019-03-13T09:38:13.397Z,9.68
2019-03-13T09:39:37.146Z,9.95
2019-03-13T09:41:05.543Z,10.00
2019-03-13T09:42:22.265Z,10.43
2019-03-13T09:45:51.214Z,10.53
2019-03-13T09:47:09.403Z,10.88
2019-03-13T09:48:25.439Z,10.58
2019-03-13T09:49:52.602Z,10.82
2019-03-13T09:51:14.626Z,11.00
2019-03-13T09:52:37.914Z,11.05
2019-03-13T09:54:45.782Z,10.78
2019-03-13T09:56:18.242Z,10.08
2019-03-13T10:00:29.421Z,11.30
2019-03-13T10:01:58.516Z,10.15
2019-03-13T10:04:00.881Z,11.00
2019-03-13T10:05:08.360Z,11.00
2019-03-13T10:06:22.930Z,11.38
2019-03-13T10:07:46.294Z,10.48
2019-03-13T10:10:37.605Z,10.45
2019-03-13T10:12:09.158Z,10.88
2019-03-13T10:13:31.684Z,10.23
2019-03-13T10:15:17.186Z,11.40
2019-03-13T10:18:24.547Z,9.45
2019-03-13T10:20:05.159Z,10.70
2019-03-13T10:21:17.302Z,10.32
2019-03-13T10:24:22.620Z,10.53
2019-03-13T10:25:37.991Z,10.43
2019-03-13T10:27:18.763Z,10.35
2019-03-13T10:28:22.623Z,10.68
2019-03-13T10:31:17.050Z,10.88
2019-03-13T10:32:31.407Z,11.22
2019-03-13T10:33:58.196Z,10.90
2019-03-13T10:35:19.441Z,10.60
2019-03-13T10:37:58.287Z,10.43
2019-03-13T10:39:19.628Z,10.70
2019-03-13T10:40:53.965Z,10.60
2019-03-13T10:42:17.028Z,9.70
2019-03-13T10:45:36.836Z,10.20
2019-03-13T10:46:57.189Z,10.88
2019-03-13T10:48:17.438Z,11.38
2019-03-13T10:51:13.952Z,11.03
2019-03-13T10:52:37.561Z,12.20
2019-03-13T10:58:56.501Z,11.73
2019-03-13T11:00:20.595Z,11.78
2019-03-13T11:01:44.771Z,11.78
2019-03-13T11:03:11.644Z,12.93
2019-03-13T11:04:28.944Z,13.15
2019-03-13T11:05:46.085Z,13.22
2019-03-13T11:07:28.524Z,13.18
2019-03-13T11:09:03.372Z,12.25
2019-03-13T11:10:58.333Z,12.05
2019-03-13T11:11:24.340Z,12.33
2019-03-13T11:12:50.297Z,11.93
2019-03-13T11:16:05.682Z,12.80
2019-03-13T11:17:22.416Z,12.20
2019-03-13T11:18:57.960Z,13.45
2019-03-13T11:20:21.206Z,12.63
2019-03-13T11:21:27.456Z,11.85
2019-03-13T11:22:37.210Z,12.50
2019-03-13T11:24:04.949Z,12.47
2019-03-13T11:25:39.794Z,12.00
2019-03-13T11:27:22.956Z,12.28
2019-03-13T11:28:42.958Z,13.10
2019-03-13T11:29:57.703Z,12.35
2019-03-13T11:31:10.125Z,12.53
2019-03-13T11:32:45.630Z,12.07
2019-03-13T11:34:01.907Z,11.73
2019-03-13T11:35:18.018Z,12.10
2019-03-13T11:36:40.818Z,12.95
2019-03-13T11:37:56.078Z,12.50
2019-03-13T11:39:04.414Z,13.20
2019-03-13T11:40:13.530Z,13.35
2019-03-13T11:41:19.900Z,12.10
2019-03-13T11:42:41.169Z,12.13
2019-03-13T11:43:53.189Z,12.82
2019-03-13T11:45:02.628Z,12.37
2019-03-13T11:46:22.258Z,13.32
2019-03-13T11:47:41.972Z,12.70
2019-03-13T11:49:00.716Z,13.28
2019-03-13T11:50:21.305Z,13.43
2019-03-13T11:51:38.843Z,12.63
2019-03-13T11:52:41.772Z,12.73
2019-03-13T11:54:10.803Z,13.03
2019-03-13T11:55:22.791Z,13.22
2019-03-13T11:56:49.713Z,13.08
2019-03-13T11:57:57.183Z,13.00
2019-03-13T11:59:05.913Z,12.43
2019-03-13T12:00:21.935Z,13.15
2019-03-13T12:01:50.257Z,13.75
2019-03-13T12:03:07.574Z,13.15
2019-03-13T12:04:15.370Z,12.68
2019-03-13T12:05:25.123Z,14.28
2019-03-13T12:06:32.585Z,13.95
2019-03-13T12:07:47.529Z,13.35
2019-03-13T12:09:09.703Z,12.37
2019-03-13T12:10:18.606Z,12.30
2019-03-13T12:11:31.410Z,13.98
2019-03-13T12:12:41.309Z,13.65
2019-03-13T12:13:59.174Z,13.58
2019-03-13T12:15:12.272Z,13.48
2019-03-13T12:16:25.172Z,12.53
2019-03-13T12:17:49.943Z,13.58
2019-03-13T12:19:03.467Z,12.68
2019-03-13T12:20:13.891Z,12.33
2019-03-13T12:21:28.615Z,12.70
2019-03-13T12:22:34.691Z,13.50
2019-03-13T12:23:41.708Z,13.05
2019-03-13T12:25:09.454Z,12.75
2019-03-13T12:26:28.752Z,12.85
2019-03-13T12:27:25.850Z,13.30
2019-03-13T12:28:41.937Z,14.05
2019-03-13T12:29:55.121Z,12.82
2019-03-13T12:31:01.828Z,12.25
2019-03-13T12:32:12.379Z,12.80
2019-03-13T12:33:41.447Z,13.62
2019-03-13T12:35:05.213Z,13.38
2019-03-13T12:36:11.771Z,12.88
2019-03-13T12:37:49.717Z,14.00
2019-03-13T12:39:11.424Z,14.98
2019-03-13T12:40:23.046Z,14.03
2019-03-13T12:41:40.483Z,13.80
2019-03-13T12:42:46.303Z,13.55
2019-03-13T12:43:56.927Z,12.95
2019-03-13T12:45:02.833Z,13.58
2019-03-13T12:46:12.164Z,12.58
2019-03-13T12:47:34.382Z,12.65
2019-03-13T12:48:54.632Z,13.58
2019-03-13T12:50:08.829Z,14.15
2019-03-13T12:51:34.617Z,13.13
2019-03-13T12:53:05.826Z,13.48
2019-03-13T12:54:11.406Z,14.00
2019-03-13T12:55:27.376Z,14.13
2019-03-13T12:56:54.016Z,12.95
2019-03-13T12:58:13.717Z,13.43
2019-03-13T12:59:30.381Z,13.98
2019-03-13T13:00:45.168Z,12.63
2019-03-13T13:01:59.975Z,13.88
2019-03-13T13:03:19.231Z,13.40
2019-03-13T13:04:39.664Z,13.22
2019-03-13T13:07:13.520Z,11.65
2019-03-13T13:08:41.765Z,12.55
2019-03-13T13:10:00.391Z,12.10
2019-03-13T13:11:21.146Z,11.68
2019-03-13T13:12:44.167Z,12.37
2019-03-13T13:13:56.491Z,11.60
2019-03-13T13:15:05.918Z,12.45
2019-03-13T13:16:18.925Z,15.10
2019-03-13T13:17:27.023Z,12.03
2019-03-13T13:18:41.163Z,12.45
2019-03-13T13:20:53.905Z,12.55
2019-03-13T13:22:04.036Z,11.60
2019-03-13T13:23:19.184Z,10.85
2019-03-13T13:24:27.792Z,11.75
2019-03-13T13:25:36.137Z,12.20
2019-03-13T13:26:43.292Z,14.15
2019-03-13T13:28:02.007Z,12.05
2019-03-13T13:29:13.759Z,11.95
2019-03-13T13:30:21.173Z,11.05
2019-03-13T13:31:37.493Z,17.65
2019-03-13T13:32:43.415Z,11.95
2019-03-13T13:33:54.209Z,15.60
2019-03-13T13:35:01.640Z,13.98
2019-03-13T13:36:14.993Z,11.28
2019-03-13T13:37:21.082Z,11.30
2019-03-13T13:38:27.248Z,10.90
2019-03-13T13:39:36.989Z,10.82
2019-03-13T13:40:48.192Z,10.45
2019-03-13T13:42:05.211Z,17.70
2019-03-13T13:43:14.618Z,12.37
2019-03-13T13:44:23.030Z,13.10
2019-03-13T13:45:40.139Z,10.03
2019-03-13T13:46:49.060Z,9.25
2019-03-13T13:47:57.170Z,9.08
2019-03-13T13:49:08.324Z,8.90
2019-03-13T13:51:47.817Z,9.48
2019-03-13T13:52:57.097Z,11.45
2019-03-13T13:54:16.360Z,9.40
2019-03-13T13:55:30.900Z,9.60
2019-03-13T13:56:40.271Z,9.00
2019-03-13T13:57:50.635Z,11.90
2019-03-13T13:58:59.077Z,7.70
2019-03-13T14:00:17.807Z,7.70
2019-03-13T14:01:15.981Z,7.75
2019-03-13T14:02:33.226Z,7.50
2019-03-13T14:03:50.347Z,7.28
2019-03-13T14:06:27.446Z,6.83
2019-03-13T14:07:34.375Z,6.80
2019-03-13T14:08:43.233Z,8.98
2019-03-13T14:10:12.591Z,7.80
2019-03-13T14:11:25.848Z,6.70
2019-03-13T14:12:37.776Z,6.95
2019-03-13T14:13:50.625Z,7.05
2019-03-13T14:15:10.333Z,7.28
2019-03-13T14:16:31.233Z,6.72
2019-03-13T14:17:39.105Z,6.75
2019-03-13T14:19:03.197Z,6.42
2019-03-13T14:20:30.651Z,6.30
2019-03-13T14:21:33.484Z,5.30
2019-03-13T14:22:46.598Z,6.30
2019-03-13T14:23:55.709Z,5.80
2019-03-13T14:25:17.957Z,5.75
2019-03-13T14:26:26.361Z,6.58
2019-03-13T14:27:30.815Z,6.25
2019-03-13T14:28:44.091Z,5.95
2019-03-13T14:29:58.332Z,6.87
2019-03-13T14:31:27.520Z,5.65
2019-03-13T14:32:49.102Z,5.80
2019-03-13T14:33:45.343Z,6.17
2019-03-13T14:34:56.179Z,5.67
2019-03-13T14:36:04.445Z,6.22
2019-03-13T14:37:16.344Z,6.15
2019-03-13T14:38:18.724Z,6.28
2019-03-13T14:39:25.685Z,5.60
2019-03-13T14:40:33.449Z,8.45
2019-03-13T14:41:50.347Z,6.53
2019-03-13T14:43:03.594Z,6.72
2019-03-13T14:44:11.767Z,6.37
2019-03-13T14:45:27.306Z,11.68
2019-03-13T14:46:38.507Z,7.08
2019-03-13T14:47:56.101Z,10.28
2019-03-13T14:49:05.683Z,7.03
2019-03-13T14:50:23.083Z,6.70
2019-03-13T14:51:37.840Z,6.05
2019-03-13T14:52:49.611Z,6.45
2019-03-13T14:54:03.593Z,7.90
2019-03-13T14:58:38.779Z,8.30
2019-03-13T14:59:52.035Z,11.33
2019-03-13T15:00:59.529Z,6.83
2019-03-13T15:02:08.244Z,6.72
2019-03-13T15:03:16.230Z,7.15
2019-03-13T15:04:43.962Z,8.13
2019-03-13T15:07:41.837Z,12.55
2019-03-13T15:08:39.568Z,7.37
2019-03-13T15:09:57.044Z,6.28
2019-03-13T15:11:12.379Z,6.70
2019-03-13T15:12:27.595Z,6.90
2019-03-13T15:13:36.569Z,6.45
2019-03-13T15:14:47.788Z,6.62
2019-03-13T15:15:54.559Z,6.60
2019-03-13T15:17:05.365Z,7.55
2019-03-13T15:18:14.133Z,12.55
2019-03-13T15:19:28.569Z,8.73
2019-03-13T15:20:34.051Z,15.18
2019-03-13T15:22:53.783Z,7.60
2019-03-13T15:24:25.490Z,10.80
2019-03-13T15:25:32.341Z,13.72
2019-03-13T15:26:35.641Z,7.22
2019-03-13T15:27:42.451Z,6.95
2019-03-13T15:29:55.955Z,7.08
2019-03-13T15:30:08.991Z,7.58
2019-03-13T15:33:15.001Z,7.10
2019-03-13T15:34:36.669Z,7.20
2019-03-13T15:36:05.578Z,7.17
2019-03-13T15:37:04.221Z,7.55
2019-03-13T15:38:12.372Z,7.70
2019-03-13T15:39:28.445Z,7.62
2019-03-13T15:40:44.737Z,7.00
2019-03-13T15:42:10.863Z,7.12
2019-03-13T15:43:21.017Z,7.30
2019-03-13T15:44:35.552Z,7.42
2019-03-13T15:45:56.487Z,7.62
2019-03-13T15:47:14.087Z,8.08
2019-03-13T15:48:42.395Z,7.75
2019-03-13T15:49:47.532Z,7.92
2019-03-13T15:51:01.160Z,8.35
2019-03-13T15:52:03.338Z,8.03
2019-03-13T15:55:07.926Z,8.40
2019-03-13T15:56:30.281Z,8.00
2019-03-13T15:57:51.305Z,8.43
2019-03-13T15:59:00.549Z,7.65
2019-03-13T16:00:27.157Z,8.23
2019-03-13T16:01:26.470Z,8.50
2019-03-13T16:02:47.775Z,8.45
2019-03-13T16:04:04.823Z,8.90
2019-03-13T16:05:37.327Z,8.83
2019-03-13T16:08:04.744Z,9.53
2019-03-13T16:09:16.393Z,8.63
2019-03-13T16:10:31.754Z,8.68
2019-03-13T16:11:38.870Z,8.30
2019-03-13T16:13:29.933Z,8.80
2019-03-13T16:14:16.301Z,8.98
2019-03-13T16:17:02.905Z,8.33
2019-03-13T16:18:14.232Z,8.38
2019-03-13T16:19:28.793Z,8.40
2019-03-13T16:20:41.527Z,7.95
2019-03-13T16:22:10.021Z,9.80
2019-03-13T16:23:24.920Z,8.85
2019-03-13T16:24:58.890Z,8.80
2019-03-13T16:26:08.398Z,9.70
2019-03-13T16:27:37.140Z,9.73
2019-03-13T16:30:30.019Z,8.45
2019-03-13T16:31:58.010Z,8.03